createdAt,value
2018-10-06T00:01:15.588Z,20.67
2018-10-06T00:03:46.466Z,27.13
2018-10-06T00:06:15.339Z,26.62
2018-10-06T00:08:44.296Z,26.97
2018-10-06T00:11:12.715Z,26.03
2018-10-06T00:13:41.017Z,21.20
2018-10-06T00:16:09.349Z,23.90
2018-10-06T00:18:38.020Z,22.13
2018-10-06T00:21:06.559Z,28.73
2018-10-06T00:23:34.944Z,24.35
2018-10-06T00:26:03.365Z,26.37
2018-10-06T00:28:31.842Z,23.07
2018-10-06T00:31:00.398Z,23.43
2018-10-06T00:33:28.704Z,21.93
2018-10-06T00:35:57.533Z,27.13
2018-10-06T00:38:25.893Z,26.47
2018-10-06T00:40:54.317Z,25.23
2018-10-06T00:43:22.689Z,25.37
2018-10-06T00:45:51.031Z,27.93
2018-10-06T00:48:19.363Z,22.57
2018-10-06T00:50:47.732Z,21.68
2018-10-06T00:53:16.062Z,25.80
2018-10-06T00:55:44.498Z,22.87
2018-10-06T00:58:13.146Z,23.33
2018-10-06T01:00:41.425Z,22.98
2018-10-06T01:03:09.838Z,24.92
2018-10-06T01:05:38.194Z,25.63
2018-10-06T01:08:06.472Z,23.95
2018-10-06T01:10:34.865Z,20.70
2018-10-06T01:13:03.189Z,23.73
2018-10-06T01:15:31.607Z,21.93
2018-10-06T01:18:00.057Z,25.03
2018-10-06T01:20:28.477Z,22.73
2018-10-06T01:22:56.807Z,21.35
2018-10-06T01:25:25.224Z,23.23
2018-10-06T01:27:53.559Z,27.67
2018-10-06T01:30:21.884Z,25.03
2018-10-06T01:32:50.388Z,22.85
2018-10-06T01:35:18.689Z,24.45
2018-10-06T01:37:47.055Z,25.27
2018-10-06T01:40:15.610Z,22.30
2018-10-06T01:42:43.974Z,22.37
2018-10-06T01:45:12.283Z,21.25
2018-10-06T01:47:40.902Z,28.20
2018-10-06T01:50:09.708Z,21.95
2018-10-06T01:52:38.037Z,23.87
2018-10-06T01:55:06.591Z,23.57
2018-10-06T01:57:35.561Z,24.53
2018-10-06T02:00:04.480Z,27.70
2018-10-06T02:02:32.867Z,25.37
2018-10-06T02:05:01.332Z,28.20
2018-10-06T02:07:29.728Z,25.03
2018-10-06T02:09:58.079Z,25.77
2018-10-06T02:12:26.868Z,22.13
2018-10-06T02:14:55.471Z,25.02
2018-10-06T02:17:24.919Z,31.13
2018-10-06T02:19:53.408Z,30.47
2018-10-06T02:22:21.946Z,23.40
2018-10-06T02:24:50.533Z,29.27
2018-10-06T02:27:18.884Z,23.93
2018-10-06T02:29:47.348Z,23.43
2018-10-06T02:32:15.714Z,27.97
2018-10-06T02:34:44.076Z,24.77
2018-10-06T02:37:12.525Z,20.60
2018-10-06T02:39:40.857Z,21.27
2018-10-06T02:42:09.148Z,23.42
2018-10-06T02:44:37.567Z,21.68
2018-10-06T02:47:06.017Z,23.80
2018-10-06T02:49:34.401Z,22.48
2018-10-06T02:52:02.703Z,30.23
2018-10-06T02:54:31.032Z,27.90
2018-10-06T02:56:59.716Z,24.30
2018-10-06T02:59:28.041Z,23.53
2018-10-06T03:01:56.724Z,22.37
2018-10-06T03:04:25.419Z,28.10
2018-10-06T03:06:53.952Z,26.10
2018-10-06T03:09:22.567Z,25.97
2018-10-06T03:11:50.916Z,22.67
2018-10-06T03:14:19.236Z,25.13
2018-10-06T03:16:47.576Z,21.70
2018-10-06T03:19:16.002Z,23.13
2018-10-06T03:21:44.384Z,23.13
2018-10-06T03:24:12.741Z,23.52
2018-10-06T03:26:41.049Z,22.43
2018-10-06T03:29:09.401Z,23.63
2018-10-06T03:31:37.865Z,22.42
2018-10-06T03:34:06.469Z,22.70
2018-10-06T03:36:34.776Z,24.77
2018-10-06T03:39:03.233Z,21.63
2018-10-06T03:41:31.569Z,22.40
2018-10-06T03:44:00.131Z,23.20
2018-10-06T03:46:29.105Z,22.50
2018-10-06T03:48:57.472Z,25.90
2018-10-06T03:51:26.006Z,24.55
2018-10-06T03:53:54.490Z,27.13
2018-10-06T03:56:22.829Z,29.17
2018-10-06T03:58:51.281Z,23.37
2018-10-06T04:01:19.842Z,21.77
2018-10-06T04:03:48.160Z,22.07
2018-10-06T04:06:17.015Z,20.20
2018-10-06T04:08:45.310Z,24.43
2018-10-06T04:11:13.673Z,23.97
2018-10-06T04:13:41.982Z,22.43
2018-10-06T04:16:10.322Z,24.90
2018-10-06T04:18:38.648Z,23.77
2018-10-06T04:21:12.195Z,25.85
2018-10-06T04:23:40.556Z,21.48
2018-10-06T04:26:08.867Z,24.37
2018-10-06T04:28:37.208Z,22.10
2018-10-06T04:31:05.572Z,25.50
2018-10-06T04:33:33.953Z,22.93
2018-10-06T04:36:02.305Z,27.03
2018-10-06T04:38:31.097Z,28.60
2018-10-06T04:40:59.586Z,28.63
2018-10-06T04:43:27.931Z,27.77
2018-10-06T04:45:56.602Z,24.57
2018-10-06T04:48:25.041Z,27.80
2018-10-06T04:50:54.296Z,26.07
2018-10-06T04:53:22.750Z,29.77
2018-10-06T04:55:51.085Z,27.77
2018-10-06T04:58:19.834Z,24.80
2018-10-06T05:00:48.163Z,29.53
2018-10-06T05:03:16.797Z,27.20
2018-10-06T05:05:45.069Z,26.53
2018-10-06T05:08:13.433Z,33.60
2018-10-06T05:10:42.394Z,27.73
2018-10-06T05:13:20.066Z,27.83
2018-10-06T05:15:48.938Z,25.57
2018-10-06T05:18:17.256Z,28.20
2018-10-06T05:20:45.596Z,27.77
2018-10-06T05:23:14.169Z,26.27
2018-10-06T05:28:30.418Z,25.83
2018-10-06T05:30:59.715Z,24.27
2018-10-06T05:33:29.263Z,26.40
2018-10-06T05:36:02.849Z,23.30
2018-10-06T05:38:33.074Z,25.17
2018-10-06T05:41:02.560Z,24.20
2018-10-06T05:43:34.630Z,22.37
2018-10-06T05:46:05.087Z,22.67
2018-10-06T05:48:34.411Z,22.23
2018-10-06T05:51:03.732Z,21.57
2018-10-06T05:53:34.143Z,23.27
2018-10-06T05:56:03.519Z,24.77
2018-10-06T05:58:34.665Z,23.97
2018-10-06T06:01:05.035Z,25.13
2018-10-06T06:03:36.132Z,28.77
2018-10-06T06:06:07.160Z,26.07
2018-10-06T06:08:36.490Z,26.00
2018-10-06T06:11:05.722Z,29.43
2018-10-06T06:13:40.898Z,26.13
2018-10-06T06:16:14.398Z,28.23
2018-10-06T06:18:57.636Z,28.50
2018-10-06T06:21:27.756Z,25.53
2018-10-06T06:24:00.444Z,28.63
2018-10-06T06:26:40.142Z,26.33
2018-10-06T06:29:10.181Z,25.07
2018-10-06T06:31:41.971Z,26.13
2018-10-06T06:34:12.255Z,28.13
2018-10-06T06:36:55.200Z,26.93
2018-10-06T06:39:28.659Z,26.53
2018-10-06T06:41:58.674Z,27.30
2018-10-06T06:45:13.346Z,32.00
2018-10-06T06:47:48.618Z,28.40
2018-10-06T06:50:18.021Z,28.00
2018-10-06T06:52:47.963Z,25.83
2018-10-06T06:55:18.025Z,26.53
2018-10-06T06:57:49.229Z,27.57
2018-10-06T07:00:19.115Z,25.73
2018-10-06T07:02:51.317Z,26.23
2018-10-06T07:05:23.397Z,25.80
2018-10-06T07:07:56.124Z,29.12
2018-10-06T07:10:28.056Z,26.53
2018-10-06T07:12:59.566Z,25.93
2018-10-06T07:15:29.911Z,24.97
2018-10-06T07:18:01.876Z,22.77
2018-10-06T07:20:31.387Z,28.77
2018-10-06T07:23:01.095Z,26.37
2018-10-06T07:25:31.225Z,29.80
2018-10-06T07:28:00.861Z,23.75
2018-10-06T07:30:30.422Z,26.05
2018-10-06T07:33:05.012Z,26.10
2018-10-06T07:35:42.582Z,24.77
2018-10-06T07:38:12.307Z,24.00
2018-10-06T07:40:41.975Z,25.20
2018-10-06T07:43:18.140Z,24.67
2018-10-06T07:45:49.689Z,27.97
2018-10-06T07:50:58.338Z,22.10
2018-10-06T07:53:26.835Z,22.87
2018-10-06T07:55:55.208Z,27.13
2018-10-06T07:58:23.557Z,21.85
2018-10-06T08:00:51.905Z,24.57
2018-10-06T08:03:20.261Z,20.55
2018-10-06T08:05:48.536Z,20.30
2018-10-06T08:08:16.840Z,21.48
2018-10-06T08:10:45.156Z,22.32
2018-10-06T08:13:13.486Z,26.20
2018-10-06T08:15:41.804Z,20.68
2018-10-06T08:18:10.125Z,20.37
2018-10-06T08:20:38.429Z,23.62
2018-10-06T08:23:06.754Z,21.07
2018-10-06T08:25:35.244Z,30.05
2018-10-06T08:28:03.524Z,23.32
2018-10-06T08:30:31.853Z,23.92
2018-10-06T08:33:00.224Z,20.25
2018-10-06T08:35:29.061Z,23.85
2018-10-06T08:37:57.645Z,21.80
2018-10-06T08:40:26.090Z,21.95
2018-10-06T08:42:54.558Z,22.70
2018-10-06T08:45:22.837Z,26.65
2018-10-06T08:47:51.575Z,23.60
2018-10-06T08:50:20.137Z,20.68
2018-10-06T08:52:48.693Z,25.15
2018-10-06T08:55:17.093Z,22.95
2018-10-06T08:57:45.538Z,20.25
2018-10-06T09:00:14.295Z,21.60
2018-10-06T09:02:42.852Z,26.27
2018-10-06T09:05:11.185Z,21.40
2018-10-06T09:07:39.856Z,22.55
2018-10-06T09:10:09.133Z,21.87
2018-10-06T09:12:37.471Z,20.80
2018-10-06T09:15:06.342Z,23.77
2018-10-06T09:17:34.816Z,23.18
2018-10-06T09:20:03.468Z,24.12
2018-10-06T09:22:31.830Z,26.02
2018-10-06T09:25:00.291Z,22.27
2018-10-06T09:27:28.833Z,23.38
2018-10-06T09:29:57.241Z,21.48
2018-10-06T09:32:25.727Z,20.75
2018-10-06T09:34:54.064Z,21.30
2018-10-06T09:37:22.584Z,22.77
2018-10-06T09:39:51.835Z,23.57
2018-10-06T09:42:20.482Z,22.20
2018-10-06T09:44:48.774Z,24.47
2018-10-06T09:47:17.237Z,23.05
2018-10-06T09:49:46.054Z,21.77
2018-10-06T09:52:14.451Z,21.93
2018-10-06T09:54:42.891Z,22.35
2018-10-06T09:57:11.506Z,27.52
2018-10-06T09:59:40.478Z,22.52
2018-10-06T10:02:10.812Z,24.65
2018-10-06T10:04:39.307Z,23.55
2018-10-06T10:07:07.847Z,21.85
2018-10-06T10:09:36.520Z,23.65
2018-10-06T10:12:05.044Z,21.07
2018-10-06T10:14:33.690Z,22.95
2018-10-06T10:17:02.313Z,28.15
2018-10-06T10:19:30.955Z,20.20
2018-10-06T10:21:59.514Z,24.18
2018-10-06T10:24:28.070Z,24.05
2018-10-06T10:26:56.663Z,28.90
2018-10-06T10:29:25.316Z,28.25
2018-10-06T10:31:53.851Z,26.70
2018-10-06T10:34:22.367Z,27.98
2018-10-06T10:36:50.734Z,32.98
2018-10-06T10:39:19.123Z,27.75
2018-10-06T10:41:47.482Z,29.98
2018-10-06T10:44:15.993Z,29.10
2018-10-06T10:46:44.400Z,27.65
2018-10-06T10:49:12.791Z,28.30
2018-10-06T10:51:41.176Z,28.87
2018-10-06T10:54:09.694Z,31.27
2018-10-06T10:56:38.138Z,30.37
2018-10-06T10:59:06.641Z,27.50
2018-10-06T11:04:17.029Z,29.07
2018-10-06T11:06:45.415Z,30.30
2018-10-06T11:09:13.762Z,29.23
2018-10-06T11:11:42.464Z,28.60
2018-10-06T11:14:10.946Z,22.87
2018-10-06T11:16:39.321Z,28.30
2018-10-06T11:19:09.216Z,25.17
2018-10-06T11:21:37.560Z,23.02
2018-10-06T11:24:05.960Z,24.05
2018-10-06T11:26:34.297Z,22.77
2018-10-06T11:29:03.011Z,19.85
2018-10-06T11:31:31.499Z,18.32
2018-10-06T11:33:59.972Z,20.88
2018-10-06T11:36:28.276Z,16.80
2018-10-06T11:38:57.475Z,13.18
2018-10-06T11:41:26.264Z,15.95
2018-10-06T11:43:54.689Z,14.65
2018-10-06T11:46:23.121Z,15.95
2018-10-06T11:48:53.377Z,17.05
2018-10-06T11:51:21.772Z,16.80
2018-10-06T11:53:50.399Z,9.58
2018-10-06T11:56:18.963Z,12.80
2018-10-06T11:58:47.296Z,13.60
2018-10-06T12:01:15.615Z,14.38
2018-10-06T12:03:43.929Z,12.00
2018-10-06T12:06:12.289Z,11.80
2018-10-06T12:08:40.665Z,12.80
2018-10-06T12:11:08.978Z,9.40
2018-10-06T12:13:37.330Z,10.03
2018-10-06T12:16:05.701Z,7.08
2018-10-06T12:18:33.981Z,7.03
2018-10-06T12:21:02.545Z,11.90
2018-10-06T12:23:30.988Z,11.73
2018-10-06T12:25:59.434Z,12.43
2018-10-06T12:28:27.760Z,14.75
2018-10-06T12:30:56.246Z,10.48
2018-10-06T12:33:24.708Z,14.25
2018-10-06T12:35:54.334Z,16.65
2018-10-06T12:38:23.221Z,19.23
2018-10-06T12:40:51.547Z,18.82
2018-10-06T12:43:19.979Z,14.28
2018-10-06T12:45:48.295Z,13.38
2018-10-06T12:48:16.726Z,12.88
2018-10-06T12:50:45.015Z,13.10
2018-10-06T12:53:13.404Z,14.10
2018-10-06T12:55:41.689Z,14.25
2018-10-06T12:58:10.165Z,16.32
2018-10-06T13:00:38.488Z,13.90
2018-10-06T13:03:07.007Z,11.95
2018-10-06T13:05:35.338Z,13.00
2018-10-06T13:08:03.653Z,13.88
2018-10-06T13:10:32.048Z,14.80
2018-10-06T13:13:00.458Z,9.95
2018-10-06T13:15:28.840Z,11.10
2018-10-06T13:17:57.197Z,12.13
2018-10-06T13:20:25.589Z,13.10
2018-10-06T13:22:53.947Z,13.30
2018-10-06T13:25:22.549Z,12.33
2018-10-06T13:27:51.087Z,14.45
2018-10-06T13:30:19.533Z,10.03
2018-10-06T13:32:47.936Z,14.05
2018-10-06T13:35:16.261Z,14.55
2018-10-06T13:37:44.628Z,14.90
2018-10-06T13:40:12.964Z,12.50
2018-10-06T13:42:41.274Z,16.25
2018-10-06T13:45:09.677Z,12.28
2018-10-06T13:47:38.044Z,11.78
2018-10-06T13:50:06.524Z,8.23
2018-10-06T13:52:34.915Z,9.70
2018-10-06T13:55:03.361Z,12.23
2018-10-06T13:57:31.867Z,9.53
2018-10-06T14:00:00.170Z,9.70
2018-10-06T14:02:28.704Z,8.60
2018-10-06T14:04:57.529Z,9.43
2018-10-06T14:07:25.927Z,10.58
2018-10-06T14:09:54.678Z,8.85
2018-10-06T14:12:23.033Z,10.80
2018-10-06T14:14:51.451Z,12.25
2018-10-06T14:17:19.901Z,13.10
2018-10-06T14:19:48.306Z,17.98
2018-10-06T14:22:17.898Z,10.60
2018-10-06T14:24:46.331Z,10.25
2018-10-06T14:27:16.595Z,12.43
2018-10-06T14:29:47.583Z,12.80
2018-10-06T14:32:18.082Z,12.80
2018-10-06T14:34:49.458Z,17.87
2018-10-06T14:37:20.007Z,16.55
2018-10-06T14:39:48.323Z,13.43
2018-10-06T14:42:16.645Z,14.60
2018-10-06T14:44:44.970Z,12.00
2018-10-06T14:47:13.654Z,14.15
2018-10-06T14:49:42.147Z,15.08
2018-10-06T14:52:10.549Z,16.45
2018-10-06T14:54:39.029Z,16.85
2018-10-06T14:57:08.096Z,16.17
2018-10-06T14:59:36.867Z,12.20
2018-10-06T15:02:05.372Z,14.58
2018-10-06T15:04:33.853Z,15.72
2018-10-06T15:07:02.650Z,15.65
2018-10-06T15:09:31.147Z,13.83
2018-10-06T15:11:59.687Z,18.57
2018-10-06T15:14:28.213Z,17.48
2018-10-06T15:16:56.544Z,29.35
2018-10-06T15:19:25.809Z,16.85
2018-10-06T15:21:55.170Z,21.15
2018-10-06T15:24:23.623Z,21.48
2018-10-06T15:26:51.913Z,22.15
2018-10-06T15:29:20.479Z,22.60
2018-10-06T15:31:48.864Z,22.05
2018-10-06T15:34:17.209Z,19.60
2018-10-06T15:36:46.591Z,23.90
2018-10-06T15:39:15.003Z,22.90
2018-10-06T15:41:43.330Z,30.95
2018-10-06T15:44:11.713Z,39.33
2018-10-06T15:46:40.052Z,27.37
2018-10-06T15:49:08.529Z,22.70
2018-10-06T15:51:36.848Z,22.05
2018-10-06T15:54:05.424Z,30.45
2018-10-06T15:56:33.780Z,21.48
2018-10-06T15:59:02.192Z,23.80
2018-10-06T16:01:30.667Z,21.35
2018-10-06T16:03:59.108Z,22.87
2018-10-06T16:06:27.509Z,23.77
2018-10-06T16:08:55.918Z,21.50
2018-10-06T16:11:25.281Z,22.35
2018-10-06T16:13:53.948Z,18.85
2018-10-06T16:16:22.567Z,22.95
2018-10-06T16:18:50.962Z,22.93
2018-10-06T16:21:19.403Z,20.68
2018-10-06T16:23:47.710Z,24.95
2018-10-06T16:26:16.445Z,20.85
2018-10-06T16:28:44.802Z,18.73
2018-10-06T16:31:13.117Z,24.70
2018-10-06T16:33:41.533Z,20.40
2018-10-06T16:36:10.027Z,19.30
2018-10-06T16:38:38.420Z,23.38
2018-10-06T16:41:06.787Z,19.75
2018-10-06T16:43:35.143Z,18.57
2018-10-06T16:46:03.798Z,25.55
2018-10-06T16:48:32.131Z,19.95
2018-10-06T16:51:00.541Z,24.32
2018-10-06T16:53:28.929Z,21.68
2018-10-06T16:55:57.406Z,23.83
2018-10-06T16:58:25.980Z,19.25
2018-10-06T17:00:54.410Z,23.12
2018-10-06T17:03:22.757Z,21.80
2018-10-06T17:05:51.113Z,20.97
2018-10-06T17:08:19.411Z,27.10
2018-10-06T17:10:47.777Z,27.98
2018-10-06T17:13:17.105Z,19.80
2018-10-06T17:15:45.415Z,27.00
2018-10-06T17:18:14.411Z,24.35
2018-10-06T17:20:42.709Z,20.43
2018-10-06T17:23:11.091Z,24.35
2018-10-06T17:25:39.470Z,25.68
2018-10-06T17:28:07.801Z,30.95
2018-10-06T17:30:36.212Z,29.90
2018-10-06T17:33:04.682Z,31.75
2018-10-06T17:35:33.448Z,34.60
2018-10-06T17:38:01.768Z,30.90
2018-10-06T17:40:30.257Z,36.38
2018-10-06T17:42:58.627Z,37.03
2018-10-06T17:45:27.108Z,40.30
2018-10-06T17:47:55.490Z,44.63
2018-10-06T17:50:24.072Z,47.88
2018-10-06T17:52:52.559Z,44.67
2018-10-06T17:55:20.927Z,40.92
2018-10-06T17:57:49.334Z,46.65
2018-10-06T18:00:17.950Z,51.63
2018-10-06T18:02:46.281Z,49.93
2018-10-06T18:05:14.656Z,55.03
2018-10-06T18:07:43.292Z,55.08
2018-10-06T18:10:11.630Z,52.35
2018-10-06T18:12:39.921Z,46.63
2018-10-06T18:15:08.271Z,53.15
2018-10-06T18:17:36.916Z,55.90
2018-10-06T18:20:05.418Z,52.78
2018-10-06T18:22:33.694Z,52.53
2018-10-06T18:25:02.029Z,52.90
2018-10-06T18:27:30.377Z,50.10
2018-10-06T18:29:58.818Z,50.50
2018-10-06T18:32:27.219Z,54.35
2018-10-06T18:34:55.644Z,54.20
2018-10-06T18:37:24.067Z,50.88
2018-10-06T18:39:52.388Z,56.28
2018-10-06T18:42:20.729Z,48.75
2018-10-06T18:44:49.083Z,42.70
2018-10-06T18:47:17.389Z,56.25
2018-10-06T18:49:45.768Z,48.68
2018-10-06T18:52:14.110Z,47.62
2018-10-06T18:54:42.466Z,50.38
2018-10-06T18:57:10.876Z,55.95
2018-10-06T18:59:39.243Z,52.75
2018-10-06T19:02:07.676Z,54.18
2018-10-06T19:04:36.151Z,54.53
2018-10-06T19:07:04.556Z,64.62
2018-10-06T19:09:32.961Z,56.33
2018-10-06T19:12:01.432Z,63.83
2018-10-06T19:14:29.878Z,59.27
2018-10-06T19:16:59.112Z,64.45
2018-10-06T19:19:27.622Z,61.50
2018-10-06T19:21:56.126Z,59.05
2018-10-06T19:24:25.034Z,64.85
2018-10-06T19:26:53.358Z,56.85
2018-10-06T19:29:21.768Z,65.60
2018-10-06T19:31:50.146Z,58.92
2018-10-06T19:34:19.410Z,56.25
2018-10-06T19:36:47.729Z,52.90
2018-10-06T19:39:16.060Z,51.70
2018-10-06T19:41:44.435Z,54.45
2018-10-06T19:44:12.869Z,57.55
2018-10-06T19:46:41.162Z,53.68
2018-10-06T19:49:09.485Z,50.95
2018-10-06T19:51:37.856Z,51.20
2018-10-06T19:54:06.635Z,45.38
2018-10-06T19:56:35.001Z,41.53
2018-10-06T19:59:03.328Z,41.48
2018-10-06T20:01:31.850Z,40.88
2018-10-06T20:04:00.216Z,36.40
2018-10-06T20:06:28.641Z,35.00
2018-10-06T20:08:57.093Z,36.73
2018-10-06T20:11:25.468Z,35.88
2018-10-06T20:13:54.740Z,31.27
2018-10-06T20:16:23.073Z,35.00
2018-10-06T20:18:51.358Z,30.10
2018-10-06T20:21:19.792Z,26.45
2018-10-06T20:23:48.129Z,27.02
2018-10-06T20:26:16.446Z,27.13
2018-10-06T20:28:44.797Z,30.70
2018-10-06T20:31:13.118Z,37.53
2018-10-06T20:33:41.500Z,24.80
2018-10-06T20:36:09.839Z,30.05
2018-10-06T20:38:38.178Z,29.90
2018-10-06T20:41:06.950Z,29.63
2018-10-06T20:43:35.295Z,28.83
2018-10-06T20:46:03.641Z,29.35
2018-10-06T20:48:31.957Z,30.77
2018-10-06T20:51:00.384Z,26.95
2018-10-06T20:53:28.908Z,30.68
2018-10-06T20:55:57.322Z,30.52
2018-10-06T20:58:25.807Z,40.70
2018-10-06T21:00:54.310Z,27.80
2018-10-06T21:03:22.897Z,23.35
2018-10-06T21:05:51.385Z,34.15
2018-10-06T21:08:19.704Z,31.68
2018-10-06T21:10:48.140Z,25.00
2018-10-06T21:13:16.475Z,21.00
2018-10-06T21:15:45.041Z,17.82
2018-10-06T21:18:13.422Z,18.70
2018-10-06T21:20:41.761Z,16.45
2018-10-06T21:23:10.161Z,15.48
2018-10-06T21:25:38.571Z,12.10
2018-10-06T21:28:07.022Z,13.13
2018-10-06T21:30:35.484Z,8.35
2018-10-06T21:33:04.166Z,16.35
2018-10-06T21:35:32.482Z,13.73
2018-10-06T21:38:00.801Z,13.45
2018-10-06T21:40:29.803Z,13.30
2018-10-06T21:42:58.284Z,14.95
2018-10-06T21:45:27.116Z,9.95
2018-10-06T21:47:55.599Z,12.70
2018-10-06T21:50:24.081Z,9.63
2018-10-06T21:52:52.657Z,13.60
2018-10-06T21:55:21.012Z,10.90
2018-10-06T21:57:49.359Z,12.97
2018-10-06T22:00:18.034Z,14.67
2018-10-06T22:02:46.394Z,12.07
2018-10-06T22:05:14.712Z,18.10
2018-10-06T22:07:44.382Z,13.17
2018-10-06T22:10:12.958Z,11.97
2018-10-06T22:12:41.395Z,11.63
2018-10-06T22:15:10.093Z,10.03
2018-10-06T22:17:38.448Z,10.00
2018-10-06T22:20:06.832Z,9.43
2018-10-06T22:22:35.199Z,10.40
2018-10-06T22:25:03.520Z,10.97
2018-10-06T22:27:31.880Z,7.63
2018-10-06T22:30:00.553Z,8.40
2018-10-06T22:32:29.060Z,8.00
2018-10-06T22:34:57.540Z,7.37
2018-10-06T22:37:25.920Z,7.43
2018-10-06T22:39:54.428Z,7.90
2018-10-06T22:42:22.772Z,7.20
2018-10-06T22:44:51.134Z,5.87
2018-10-06T22:47:19.524Z,10.53
2018-10-06T22:49:47.812Z,7.33
2018-10-06T22:52:16.137Z,10.10
2018-10-06T22:54:44.516Z,9.70
2018-10-06T23:00:04.920Z,7.60
2018-10-06T23:02:33.399Z,6.07
2018-10-06T23:05:01.761Z,8.20
2018-10-06T23:07:30.136Z,7.67
2018-10-06T23:09:58.696Z,5.43
2018-10-06T23:12:27.124Z,7.03
2018-10-06T23:14:55.740Z,10.50
2018-10-06T23:17:24.141Z,12.50
2018-10-06T23:19:52.605Z,7.17
2018-10-06T23:22:21.073Z,11.70
2018-10-06T23:24:49.422Z,6.30
2018-10-06T23:27:17.863Z,7.30
2018-10-06T23:29:46.189Z,4.17
2018-10-06T23:32:14.655Z,5.77
2018-10-06T23:34:43.141Z,7.40
2018-10-06T23:37:11.534Z,9.23
2018-10-06T23:39:39.896Z,6.97
2018-10-06T23:42:08.320Z,6.23
2018-10-06T23:44:36.638Z,5.13
2018-10-06T23:47:05.027Z,6.43
2018-10-06T23:49:33.689Z,5.20
2018-10-06T23:52:02.083Z,8.03
2018-10-06T23:54:30.646Z,7.30
2018-10-06T23:56:59.032Z,8.23
2018-10-06T23:59:27.529Z,9.13
